createdAt,value
2022-10-07T00:00:47.641Z,20.66
2022-10-07T00:03:15.652Z,20.83
2022-10-07T00:05:42.501Z,20.83
2022-10-07T00:08:09.514Z,20.82
2022-10-07T00:10:41.103Z,20.82
2022-10-07T00:13:10.078Z,20.82
2022-10-07T00:15:36.903Z,20.80
2022-10-07T00:18:03.993Z,20.84
2022-10-07T00:20:30.879Z,20.89
2022-10-07T00:22:57.651Z,21.02
2022-10-07T00:25:24.456Z,20.99
2022-10-07T00:27:51.218Z,21.05
2022-10-07T00:30:18.160Z,21.01
2022-10-07T00:32:44.893Z,21.11
2022-10-07T00:35:11.664Z,21.06
2022-10-07T00:37:43.453Z,21.03
2022-10-07T00:40:12.894Z,20.93
2022-10-07T00:42:40.717Z,21.10
2022-10-07T00:45:19.528Z,20.99
2022-10-07T00:47:49.298Z,20.83
2022-10-07T00:50:28.080Z,20.78
2022-10-07T00:52:59.846Z,20.79
2022-10-07T00:55:29.571Z,20.84
2022-10-07T00:58:01.569Z,20.81
2022-10-07T01:00:28.566Z,20.91
2022-10-07T01:02:55.402Z,20.89
2022-10-07T01:05:22.242Z,20.81
2022-10-07T01:07:50.844Z,20.80
2022-10-07T01:10:22.032Z,20.64
2022-10-07T01:13:14.809Z,20.72
2022-10-07T01:16:06.247Z,20.62
2022-10-07T01:18:57.961Z,20.27
2022-10-07T01:21:41.765Z,20.69
2022-10-07T01:24:36.509Z,20.58
2022-10-07T01:27:12.097Z,20.58
2022-10-07T01:29:56.211Z,20.51
2022-10-07T01:32:48.330Z,20.47
2022-10-07T01:35:24.779Z,20.49
2022-10-07T01:37:57.358Z,20.49
2022-10-07T01:40:33.421Z,20.46
2022-10-07T01:43:01.404Z,20.15
2022-10-07T01:45:31.151Z,20.23
2022-10-07T01:48:04.390Z,20.47
2022-10-07T01:50:35.075Z,20.21
2022-10-07T01:53:32.324Z,20.19
2022-10-07T01:56:21.217Z,19.90
2022-10-07T01:59:15.380Z,19.82
2022-10-07T02:02:24.464Z,19.63
2022-10-07T02:05:15.454Z,19.70
2022-10-07T02:08:15.195Z,19.52
2022-10-07T02:10:48.458Z,19.52
2022-10-07T02:13:28.869Z,19.38
2022-10-07T02:16:19.924Z,19.45
2022-10-07T02:18:50.610Z,19.32
2022-10-07T02:21:25.509Z,19.44
2022-10-07T02:23:54.873Z,19.45
2022-10-07T02:26:23.271Z,19.40
2022-10-07T02:28:53.542Z,19.37
2022-10-07T02:31:27.785Z,19.32
2022-10-07T02:33:57.445Z,19.28
2022-10-07T02:36:34.466Z,19.28
2022-10-07T02:39:01.753Z,19.27
2022-10-07T02:41:35.622Z,19.25
2022-10-07T02:44:05.446Z,19.21
2022-10-07T02:46:38.962Z,18.96
2022-10-07T02:49:13.698Z,19.10
2022-10-07T02:51:48.381Z,18.95
2022-10-07T02:54:20.094Z,19.03
2022-10-07T02:56:47.617Z,19.12
2022-10-07T02:59:15.902Z,19.15
2022-10-07T03:01:47.982Z,19.09
2022-10-07T03:04:14.893Z,19.13
2022-10-07T03:06:43.058Z,19.17
2022-10-07T03:09:10.404Z,19.24
2022-10-07T03:11:39.035Z,19.28
2022-10-07T03:14:06.301Z,19.18
2022-10-07T03:16:33.324Z,19.25
2022-10-07T03:19:00.175Z,19.26
2022-10-07T03:21:27.166Z,19.25
2022-10-07T03:23:54.873Z,19.23
2022-10-07T03:26:21.671Z,19.09
2022-10-07T03:28:49.081Z,19.03
2022-10-07T03:31:15.962Z,19.15
2022-10-07T03:33:43.379Z,19.15
2022-10-07T03:36:10.470Z,19.13
2022-10-07T03:38:37.248Z,18.84
2022-10-07T03:41:06.984Z,19.02
2022-10-07T03:43:34.324Z,19.09
2022-10-07T03:46:02.676Z,19.07
2022-10-07T03:48:30.719Z,19.04
2022-10-07T03:51:00.413Z,19.29
2022-10-07T03:53:29.817Z,19.27
2022-10-07T03:55:56.565Z,19.16
2022-10-07T03:58:23.480Z,19.40
2022-10-07T04:00:50.292Z,19.31
2022-10-07T04:03:18.843Z,19.55
2022-10-07T04:05:58.441Z,19.54
2022-10-07T04:08:28.142Z,19.54
2022-10-07T04:10:55.288Z,19.50
2022-10-07T04:13:22.167Z,19.33
2022-10-07T04:15:49.396Z,19.31
2022-10-07T04:18:16.319Z,19.38
2022-10-07T04:20:43.316Z,19.00
2022-10-07T04:23:10.092Z,19.30
2022-10-07T04:25:38.676Z,19.22
2022-10-07T04:28:08.216Z,19.20
2022-10-07T04:30:40.385Z,18.93
2022-10-07T04:33:08.321Z,18.95
2022-10-07T04:35:41.169Z,18.97
2022-10-07T04:38:12.308Z,18.93
2022-10-07T04:40:41.266Z,18.89
2022-10-07T04:43:19.816Z,18.45
2022-10-07T04:45:48.299Z,18.70
2022-10-07T04:48:18.418Z,18.62
2022-10-07T04:50:45.721Z,18.81
2022-10-07T04:53:14.869Z,18.50
2022-10-07T04:55:44.189Z,18.70
2022-10-07T04:58:11.100Z,18.57
2022-10-07T05:00:45.862Z,18.44
2022-10-07T05:03:14.152Z,18.31
2022-10-07T05:05:43.336Z,18.37
2022-10-07T05:08:11.005Z,18.21
2022-10-07T05:10:40.032Z,18.27
2022-10-07T05:13:09.592Z,18.22
2022-10-07T05:15:36.339Z,18.13
2022-10-07T05:18:03.510Z,18.11
2022-10-07T05:20:30.235Z,17.95
2022-10-07T05:22:56.912Z,18.10
2022-10-07T05:25:23.755Z,17.96
2022-10-07T05:27:54.027Z,18.23
2022-10-07T05:30:21.202Z,18.13
2022-10-07T05:32:48.060Z,18.21
2022-10-07T05:35:15.015Z,18.09
2022-10-07T05:37:47.492Z,18.26
2022-10-07T05:40:15.637Z,18.23
2022-10-07T05:42:43.000Z,18.28
2022-10-07T05:45:10.229Z,18.38
2022-10-07T05:47:37.080Z,18.33
2022-10-07T05:50:04.064Z,18.22
2022-10-07T05:52:30.830Z,18.22
2022-10-07T05:54:57.984Z,18.17
2022-10-07T05:57:24.907Z,18.21
2022-10-07T05:59:51.837Z,17.99
2022-10-07T06:02:19.696Z,18.05
2022-10-07T06:04:47.510Z,18.12
2022-10-07T06:07:19.564Z,17.96
2022-10-07T06:10:06.584Z,18.08
2022-10-07T06:12:52.000Z,17.98
2022-10-07T06:15:19.078Z,18.14
2022-10-07T06:17:46.555Z,18.17
2022-10-07T06:20:14.442Z,18.37
2022-10-07T06:22:43.207Z,18.45
2022-10-07T06:25:10.084Z,18.39
2022-10-07T06:27:36.898Z,18.29
2022-10-07T06:30:04.195Z,18.29
2022-10-07T06:32:32.720Z,18.33
2022-10-07T06:34:59.485Z,18.18
2022-10-07T06:37:26.349Z,18.21
2022-10-07T06:39:57.399Z,18.25
2022-10-07T06:42:26.211Z,18.33
2022-10-07T06:44:54.056Z,18.30
2022-10-07T06:47:22.065Z,18.20
2022-10-07T06:49:49.081Z,18.10
2022-10-07T06:52:15.906Z,18.10
2022-10-07T06:54:42.893Z,17.98
2022-10-07T06:57:33.085Z,17.92
2022-10-07T06:59:56.719Z,17.84
2022-10-07T07:02:25.944Z,17.61
2022-10-07T07:04:57.438Z,17.81
2022-10-07T07:07:25.026Z,17.83
2022-10-07T07:09:52.331Z,17.61
2022-10-07T07:12:19.072Z,17.86
2022-10-07T07:14:45.969Z,17.83
2022-10-07T07:17:12.844Z,17.89
2022-10-07T07:19:39.640Z,17.89
2022-10-07T07:22:07.044Z,18.05
2022-10-07T07:24:33.817Z,18.00
2022-10-07T07:27:00.888Z,18.39
2022-10-07T07:29:27.704Z,18.52
2022-10-07T07:31:54.545Z,18.78
2022-10-07T07:34:21.316Z,19.02
2022-10-07T07:36:51.377Z,18.91
2022-10-07T07:39:19.253Z,19.08
2022-10-07T07:41:47.939Z,19.24
2022-10-07T07:44:17.589Z,19.33
2022-10-07T07:46:48.716Z,19.46
2022-10-07T07:49:16.016Z,19.70
2022-10-07T07:51:43.340Z,19.90
2022-10-07T07:54:11.822Z,20.09
2022-10-07T07:56:38.695Z,20.22
2022-10-07T07:59:06.008Z,20.45
2022-10-07T08:01:33.042Z,20.64
2022-10-07T08:04:01.072Z,20.89
2022-10-07T08:06:28.458Z,21.13
2022-10-07T08:08:59.655Z,21.35
2022-10-07T08:11:27.634Z,21.60
2022-10-07T08:13:55.889Z,21.85
2022-10-07T08:16:25.118Z,22.04
2022-10-07T08:18:53.308Z,22.15
2022-10-07T08:21:22.199Z,22.22
2022-10-07T08:23:57.620Z,22.27
2022-10-07T08:26:25.984Z,22.90
2022-10-07T08:28:53.048Z,23.00
2022-10-07T08:31:20.241Z,22.86
2022-10-07T08:33:49.045Z,23.02
2022-10-07T08:36:18.589Z,23.05
2022-10-07T08:38:49.281Z,23.23
2022-10-07T08:41:39.884Z,23.55
2022-10-07T08:44:18.567Z,23.82
2022-10-07T08:47:15.668Z,24.15
2022-10-07T08:49:57.034Z,24.43
2022-10-07T08:52:46.829Z,24.81
2022-10-07T08:55:56.991Z,25.10
2022-10-07T08:58:32.638Z,25.31
2022-10-07T09:01:17.921Z,25.34
2022-10-07T09:04:05.421Z,25.58
2022-10-07T09:06:56.996Z,25.73
2022-10-07T09:09:28.566Z,25.73
2022-10-07T09:11:57.991Z,25.52
2022-10-07T09:14:38.670Z,25.36
2022-10-07T09:17:14.367Z,25.48
2022-10-07T09:19:58.297Z,25.78
2022-10-07T09:22:42.663Z,25.84
2022-10-07T09:25:12.897Z,26.48
2022-10-07T09:27:40.039Z,27.07
2022-10-07T09:30:07.592Z,27.51
2022-10-07T09:32:40.321Z,27.92
2022-10-07T09:35:11.989Z,28.42
2022-10-07T09:37:55.987Z,28.56
2022-10-07T09:41:09.739Z,28.20
2022-10-07T09:43:36.985Z,28.41
2022-10-07T09:46:03.873Z,28.68
2022-10-07T09:48:34.468Z,29.25
2022-10-07T09:51:18.798Z,29.26
2022-10-07T09:54:03.088Z,28.99
2022-10-07T09:56:38.134Z,29.09
2022-10-07T09:59:20.190Z,29.24
2022-10-07T10:02:16.161Z,29.24
2022-10-07T10:04:54.406Z,29.21
2022-10-07T10:07:28.813Z,29.11
2022-10-07T10:09:57.840Z,29.29
2022-10-07T10:12:26.096Z,29.65
2022-10-07T10:14:53.120Z,29.70
2022-10-07T10:17:38.200Z,29.83
2022-10-07T10:20:30.768Z,30.20
2022-10-07T10:23:02.058Z,30.60
2022-10-07T10:26:33.327Z,31.09
2022-10-07T10:29:19.419Z,31.57
2022-10-07T10:31:55.175Z,31.81
2022-10-07T10:34:50.177Z,32.19
2022-10-07T10:37:20.649Z,32.62
2022-10-07T10:39:59.568Z,32.82
2022-10-07T10:42:49.595Z,32.69
2022-10-07T10:45:25.965Z,32.79
2022-10-07T10:48:17.465Z,32.39
2022-10-07T10:51:14.886Z,32.52
2022-10-07T10:53:56.938Z,32.28
2022-10-07T10:56:27.182Z,32.62
2022-10-07T10:59:03.512Z,32.93
2022-10-07T11:01:36.696Z,32.88
2022-10-07T11:04:22.322Z,33.42
2022-10-07T11:06:55.966Z,33.40
2022-10-07T11:09:49.472Z,33.64
2022-10-07T11:12:25.058Z,33.94
2022-10-07T11:14:59.118Z,34.10
2022-10-07T11:17:31.795Z,34.45
2022-10-07T11:20:25.689Z,34.52
2022-10-07T11:22:58.644Z,34.84
2022-10-07T11:25:36.661Z,34.80
2022-10-07T11:28:19.547Z,35.06
2022-10-07T11:31:11.355Z,35.54
2022-10-07T11:34:07.321Z,36.11
2022-10-07T11:36:53.054Z,36.48
2022-10-07T11:39:21.314Z,36.69
2022-10-07T11:41:55.541Z,37.13
2022-10-07T11:44:31.009Z,37.05
2022-10-07T11:47:03.222Z,37.11
2022-10-07T11:49:41.871Z,37.31
2022-10-07T11:52:24.916Z,37.50
2022-10-07T11:54:59.620Z,37.73
2022-10-07T11:57:31.595Z,38.03
2022-10-07T12:00:02.903Z,38.06
2022-10-07T12:02:29.685Z,38.24
2022-10-07T12:04:58.221Z,38.18
2022-10-07T12:07:56.665Z,38.81
2022-10-07T12:10:34.411Z,39.33
2022-10-07T12:13:21.304Z,40.06
2022-10-07T12:15:50.191Z,39.91
2022-10-07T12:18:19.433Z,39.86
2022-10-07T12:20:53.169Z,40.22
2022-10-07T12:23:19.806Z,40.66
2022-10-07T12:25:47.862Z,40.82
2022-10-07T12:28:47.491Z,41.18
2022-10-07T12:31:20.766Z,40.96
2022-10-07T12:33:47.858Z,40.95
2022-10-07T12:36:26.452Z,40.77
2022-10-07T12:38:56.539Z,40.57
2022-10-07T12:41:36.423Z,40.21
2022-10-07T12:44:08.665Z,40.32
2022-10-07T12:46:35.403Z,40.22
2022-10-07T12:49:07.103Z,40.30
2022-10-07T12:51:39.627Z,40.60
2022-10-07T12:54:32.290Z,41.27
2022-10-07T12:57:00.784Z,41.59
2022-10-07T12:59:48.629Z,41.75
2022-10-07T13:02:50.388Z,41.88
2022-10-07T13:05:32.342Z,42.00
2022-10-07T13:08:17.424Z,41.60
2022-10-07T13:11:03.889Z,39.22
2022-10-07T13:13:37.191Z,37.26
2022-10-07T13:16:24.517Z,35.81
2022-10-07T13:19:18.972Z,34.48
2022-10-07T13:22:03.465Z,33.42
2022-10-07T13:24:30.732Z,32.76
2022-10-07T13:26:57.745Z,31.94
2022-10-07T13:29:35.995Z,31.55
2022-10-07T13:32:16.255Z,30.99
2022-10-07T13:34:45.013Z,30.31
2022-10-07T13:37:28.473Z,29.84
2022-10-07T13:39:57.583Z,29.37
2022-10-07T13:42:30.145Z,29.09
2022-10-07T13:45:02.687Z,28.84
2022-10-07T13:47:34.120Z,28.53
2022-10-07T13:50:02.625Z,28.42
2022-10-07T13:52:39.910Z,28.11
2022-10-07T13:55:29.229Z,28.12
2022-10-07T13:57:57.350Z,27.91
2022-10-07T14:00:28.701Z,27.90
2022-10-07T14:02:56.032Z,27.81
2022-10-07T14:05:28.581Z,27.79
2022-10-07T14:07:58.382Z,27.62
2022-10-07T14:10:28.284Z,27.54
2022-10-07T14:13:07.420Z,27.49
2022-10-07T14:15:36.491Z,27.27
2022-10-07T14:18:08.144Z,27.21
2022-10-07T14:20:45.435Z,26.85
2022-10-07T14:23:31.372Z,27.01
2022-10-07T14:26:00.837Z,26.79
2022-10-07T14:28:33.165Z,26.69
2022-10-07T14:31:39.148Z,26.37
2022-10-07T14:34:39.539Z,26.63
2022-10-07T14:37:10.338Z,26.61
2022-10-07T14:39:48.053Z,26.44
2022-10-07T14:42:20.003Z,26.30
2022-10-07T14:44:47.657Z,26.14
2022-10-07T14:47:19.241Z,26.24
2022-10-07T14:49:45.944Z,26.14
2022-10-07T14:52:20.181Z,25.92
2022-10-07T14:54:47.942Z,25.74
2022-10-07T14:57:14.683Z,25.83
2022-10-07T14:59:41.613Z,25.76
2022-10-07T15:02:11.013Z,25.73
2022-10-07T15:04:37.780Z,25.56
2022-10-07T15:07:04.599Z,25.43
2022-10-07T15:09:31.279Z,25.33
2022-10-07T15:11:58.064Z,25.29
2022-10-07T15:14:24.896Z,25.28
2022-10-07T15:16:51.822Z,25.17
2022-10-07T15:19:19.311Z,25.05
2022-10-07T15:21:46.197Z,25.06
2022-10-07T15:24:13.102Z,24.91
2022-10-07T15:26:39.773Z,24.83
2022-10-07T15:29:08.221Z,24.64
2022-10-07T15:31:35.338Z,24.85
2022-10-07T15:34:02.119Z,24.75
2022-10-07T15:36:30.011Z,24.73
2022-10-07T15:39:02.047Z,24.74
2022-10-07T15:41:36.316Z,24.75
2022-10-07T15:44:05.969Z,24.67
2022-10-07T15:46:32.616Z,24.52
2022-10-07T15:49:00.090Z,24.56
2022-10-07T15:51:27.778Z,24.53
2022-10-07T15:53:54.663Z,24.60
2022-10-07T15:56:21.815Z,24.61
2022-10-07T15:58:48.555Z,24.43
2022-10-07T16:01:15.657Z,24.20
2022-10-07T16:03:44.333Z,24.34
2022-10-07T16:06:16.174Z,24.42
2022-10-07T16:08:43.527Z,24.31
2022-10-07T16:11:12.625Z,24.41
2022-10-07T16:13:41.817Z,24.34
2022-10-07T16:16:14.867Z,24.26
2022-10-07T16:18:44.086Z,24.35
2022-10-07T16:21:15.811Z,24.51
2022-10-07T16:23:47.854Z,24.51
2022-10-07T16:26:24.577Z,24.41
2022-10-07T16:29:12.018Z,24.47
2022-10-07T16:31:41.489Z,24.42
2022-10-07T16:34:09.468Z,24.22
2022-10-07T16:36:36.823Z,24.17
2022-10-07T16:39:08.794Z,24.09
2022-10-07T16:41:36.856Z,24.04
2022-10-07T16:44:05.145Z,24.03
2022-10-07T16:46:32.754Z,23.88
2022-10-07T16:49:00.488Z,24.06
2022-10-07T16:51:35.729Z,24.11
2022-10-07T16:54:05.517Z,24.14
2022-10-07T16:56:36.258Z,24.08
2022-10-07T16:59:05.658Z,23.97
2022-10-07T17:01:32.958Z,23.83
2022-10-07T17:04:01.570Z,23.91
2022-10-07T17:06:33.507Z,23.80
2022-10-07T17:09:04.443Z,23.25
2022-10-07T17:11:36.439Z,23.61
2022-10-07T17:14:11.556Z,23.52
2022-10-07T17:16:44.793Z,23.45
2022-10-07T17:19:20.838Z,23.37
2022-10-07T17:21:49.274Z,23.36
2022-10-07T17:24:17.793Z,23.32
2022-10-07T17:26:45.766Z,23.19
2022-10-07T17:29:14.544Z,23.18
2022-10-07T17:31:43.540Z,23.10
2022-10-07T17:34:11.906Z,22.93
2022-10-07T17:36:39.740Z,22.80
2022-10-07T17:39:06.742Z,22.79
2022-10-07T17:41:35.872Z,22.74
2022-10-07T17:44:05.860Z,22.66
2022-10-07T17:46:33.358Z,22.59
2022-10-07T17:49:02.190Z,22.41
2022-10-07T17:51:31.609Z,22.32
2022-10-07T17:54:00.001Z,22.24
2022-10-07T17:56:28.952Z,22.15
2022-10-07T17:58:56.971Z,22.10
2022-10-07T18:01:34.166Z,22.00
2022-10-07T18:04:10.098Z,21.84
2022-10-07T18:06:39.207Z,21.87
2022-10-07T18:09:07.910Z,21.77
2022-10-07T18:11:53.863Z,21.73
2022-10-07T18:14:39.786Z,21.65
2022-10-07T18:17:09.076Z,21.61
2022-10-07T18:19:36.131Z,21.47
2022-10-07T18:22:05.945Z,21.53
2022-10-07T18:24:32.769Z,21.40
2022-10-07T18:27:01.055Z,21.45
2022-10-07T18:29:33.408Z,21.27
2022-10-07T18:32:00.898Z,21.20
2022-10-07T18:34:28.087Z,21.20
2022-10-07T18:36:56.874Z,21.26
2022-10-07T18:39:25.154Z,21.17
2022-10-07T18:41:51.916Z,21.17
2022-10-07T18:44:18.752Z,21.16
2022-10-07T18:46:45.728Z,21.14
2022-10-07T18:49:15.213Z,21.05
2022-10-07T18:51:42.140Z,21.18
2022-10-07T18:54:09.898Z,21.15
2022-10-07T18:56:40.864Z,20.91
2022-10-07T18:59:09.850Z,21.23
2022-10-07T19:01:37.677Z,21.18
2022-10-07T19:04:06.019Z,21.08
2022-10-07T19:06:36.259Z,21.19
2022-10-07T19:09:06.086Z,21.17
2022-10-07T19:11:32.679Z,21.05
2022-10-07T19:13:59.997Z,21.09
2022-10-07T19:16:37.080Z,21.04
2022-10-07T19:19:07.942Z,20.74
2022-10-07T19:21:35.691Z,20.95
2022-10-07T19:24:03.755Z,21.14
2022-10-07T19:26:36.665Z,21.13
2022-10-07T19:29:04.979Z,21.15
2022-10-07T19:31:35.433Z,21.08
2022-10-07T19:34:08.965Z,21.10
2022-10-07T19:36:38.032Z,21.18
2022-10-07T19:39:04.831Z,21.17
2022-10-07T19:41:33.665Z,21.19
2022-10-07T19:44:01.700Z,21.13
2022-10-07T19:46:30.628Z,20.99
2022-10-07T19:48:59.918Z,21.11
2022-10-07T19:51:30.455Z,21.00
2022-10-07T19:53:58.475Z,21.06
2022-10-07T19:56:28.514Z,20.98
2022-10-07T19:59:00.512Z,20.99
2022-10-07T20:01:32.009Z,21.02
2022-10-07T20:04:01.505Z,20.92
2022-10-07T20:06:28.829Z,20.94
2022-10-07T20:08:57.484Z,20.91
2022-10-07T20:11:25.505Z,20.74
2022-10-07T20:13:54.388Z,20.79
2022-10-07T20:16:24.601Z,20.81
2022-10-07T20:19:08.165Z,20.76
2022-10-07T20:21:37.165Z,20.76
2022-10-07T20:24:05.349Z,20.23
2022-10-07T20:26:35.143Z,20.75
2022-10-07T20:29:04.010Z,20.76
2022-10-07T20:31:35.143Z,20.75
2022-10-07T20:34:02.906Z,20.73
2022-10-07T20:36:35.415Z,20.72
2022-10-07T20:39:23.910Z,20.71
2022-10-07T20:42:11.194Z,20.70
2022-10-07T20:44:39.148Z,20.69
2022-10-07T20:47:08.203Z,20.57
2022-10-07T20:49:37.492Z,20.70
2022-10-07T20:52:17.074Z,20.71
2022-10-07T20:54:45.722Z,20.71
2022-10-07T20:57:17.568Z,20.70
2022-10-07T20:59:44.839Z,20.58
2022-10-07T21:02:13.870Z,20.41
2022-10-07T21:04:40.837Z,20.24
2022-10-07T21:07:08.485Z,20.19
2022-10-07T21:09:39.982Z,20.15
2022-10-07T21:12:13.905Z,20.17
2022-10-07T21:14:43.188Z,19.95
2022-10-07T21:17:11.184Z,20.09
2022-10-07T21:19:38.009Z,19.95
2022-10-07T21:22:06.306Z,20.00
2022-10-07T21:24:34.602Z,19.96
2022-10-07T21:27:06.357Z,19.95
2022-10-07T21:29:37.425Z,19.91
2022-10-07T21:32:07.599Z,19.96
2022-10-07T21:34:34.502Z,19.92
2022-10-07T21:37:01.237Z,19.87
2022-10-07T21:39:28.016Z,20.01
2022-10-07T21:41:54.942Z,20.12
2022-10-07T21:44:21.691Z,20.16
2022-10-07T21:46:48.565Z,20.27
2022-10-07T21:49:16.008Z,20.31
2022-10-07T21:51:43.567Z,20.31
2022-10-07T21:54:14.366Z,20.31
2022-10-07T21:56:43.622Z,20.09
2022-10-07T21:59:10.527Z,20.26
2022-10-07T22:01:38.273Z,20.24
2022-10-07T22:04:05.277Z,20.24
2022-10-07T22:06:51.014Z,20.22
2022-10-07T22:09:21.073Z,20.27
2022-10-07T22:11:48.879Z,19.86
2022-10-07T22:14:15.642Z,20.15
2022-10-07T22:16:42.891Z,20.16
2022-10-07T22:19:10.812Z,20.20
2022-10-07T22:21:40.393Z,19.95
2022-10-07T22:24:08.624Z,20.18
2022-10-07T22:26:47.018Z,20.05
2022-10-07T22:29:16.218Z,20.14
2022-10-07T22:31:43.337Z,20.10
2022-10-07T22:34:30.329Z,20.02
2022-10-07T22:36:58.277Z,19.88
2022-10-07T22:39:26.009Z,19.96
2022-10-07T22:41:53.489Z,20.01
2022-10-07T22:44:20.485Z,20.10
2022-10-07T22:46:48.679Z,19.91
2022-10-07T22:49:15.622Z,19.98
2022-10-07T22:51:43.203Z,19.91
2022-10-07T22:54:12.788Z,19.96
2022-10-07T22:56:40.425Z,19.92
2022-10-07T22:59:08.784Z,19.78
2022-10-07T23:01:35.966Z,19.76
2022-10-07T23:04:04.959Z,19.81
2022-10-07T23:06:33.604Z,19.76
2022-10-07T23:09:00.828Z,19.70
2022-10-07T23:11:29.581Z,19.57
2022-10-07T23:13:56.396Z,19.55
2022-10-07T23:16:26.116Z,19.61
2022-10-07T23:18:53.762Z,19.49
2022-10-07T23:21:25.863Z,19.63
2022-10-07T23:24:02.863Z,19.61
2022-10-07T23:26:33.709Z,19.41
2022-10-07T23:29:01.433Z,19.56
2022-10-07T23:31:30.477Z,19.50
2022-10-07T23:33:58.562Z,19.47
2022-10-07T23:36:26.629Z,19.38
2022-10-07T23:38:53.862Z,19.42
2022-10-07T23:41:23.639Z,18.99
2022-10-07T23:43:51.751Z,19.35
2022-10-07T23:46:20.091Z,19.14
2022-10-07T23:48:47.476Z,19.20
2022-10-07T23:51:17.700Z,19.17
2022-10-07T23:53:44.954Z,18.94
2022-10-07T23:56:12.144Z,19.12
2022-10-07T23:58:39.626Z,18.74
